Time;durP1;ratioP1;P1;durP2;ratioP2;P2;SDS_P1;SDS_P2;PMS_P1;PMS_P2;Temp;Humidity;BMP_temperature;BMP_pressure;BME280_temperature;BME280_humidity;BME280_pressure;Samples;Min_cycle;Max_cycle;Signal;HPM_P1;HPM_P2
2019/11/11 00:02:22;;;;;;;43.7;24.3;;;;;;;;;;;;;
2019/11/11 00:04:47;;;;;;;46.1;23.8;;;;;;;;;;;;;
2019/11/11 00:07:12;;;;;;;45.8;24.3;;;;;;;;;;;;;
2019/11/11 00:09:38;;;;;;;49.6;25.2;;;;;;;;;;;;;
2019/11/11 00:12:03;;;;;;;46.2;24.4;;;;;;;;;;;;;
2019/11/11 00:14:28;;;;;;;46.4;24.1;;;;;;;;;;;;;
2019/11/11 00:16:53;;;;;;;44.1;23.7;;;;;;;;;;;;;
2019/11/11 00:19:18;;;;;;;42.7;23.6;;;;;;;;;;;;;
2019/11/11 00:21:43;;;;;;;47.9;24.4;;;;;;;;;;;;;
2019/11/11 00:24:08;;;;;;;45.5;24.1;;;;;;;;;;;;;
2019/11/11 00:26:33;;;;;;;41.2;23.8;;;;;;;;;;;;;
2019/11/11 00:28:58;;;;;;;43.8;23.6;;;;;;;;;;;;;
2019/11/11 00:31:23;;;;;;;42.1;23.4;;;;;;;;;;;;;
2019/11/11 00:33:48;;;;;;;41.8;23.6;;;;;;;;;;;;;
2019/11/11 00:36:14;;;;;;;40.7;23.4;;;;;;;;;;;;;
2019/11/11 00:38:39;;;;;;;40.6;23.8;;;;;;;;;;;;;
2019/11/11 00:41:04;;;;;;;41.7;23.7;;;;;;;;;;;;;
2019/11/11 00:43:29;;;;;;;39.3;22.6;;;;;;;;;;;;;
2019/11/11 00:45:54;;;;;;;37.2;22.1;;;;;;;;;;;;;
2019/11/11 00:48:20;;;;;;;38.3;22.2;;;;;;;;;;;;;
2019/11/11 00:50:45;;;;;;;39.6;23.1;;;;;;;;;;;;;
2019/11/11 00:53:10;;;;;;;41.9;24.4;;;;;;;;;;;;;
2019/11/11 00:55:35;;;;;;;43.5;23.9;;;;;;;;;;;;;
2019/11/11 00:58:00;;;;;;;42.4;24.3;;;;;;;;;;;;;
2019/11/11 01:00:25;;;;;;;37.8;23.3;;;;;;;;;;;;;
2019/11/11 01:02:50;;;;;;;37.3;23.5;;;;;;;;;;;;;
2019/11/11 01:05:15;;;;;;;37.1;23;;;;;;;;;;;;;
2019/11/11 01:07:40;;;;;;;38.3;22.5;;;;;;;;;;;;;
2019/11/11 01:10:06;;;;;;;37.2;23.2;;;;;;;;;;;;;
2019/11/11 01:12:30;;;;;;;36.9;22.9;;;;;;;;;;;;;
2019/11/11 01:14:55;;;;;;;35.1;22.9;;;;;;;;;;;;;
2019/11/11 01:17:21;;;;;;;34.7;22.7;;;;;;;;;;;;;
2019/11/11 01:19:46;;;;;;;37.2;23.5;;;;;;;;;;;;;
2019/11/11 01:22:11;;;;;;;36.4;23;;;;;;;;;;;;;
2019/11/11 01:24:36;;;;;;;33.4;22.6;;;;;;;;;;;;;
2019/11/11 01:27:01;;;;;;;33.4;22.8;;;;;;;;;;;;;
2019/11/11 01:29:31;;;;;;;31.6;21.1;;;;;;;;;;;;;
2019/11/11 01:31:51;;;;;;;34;22.2;;;;;;;;;;;;;
2019/11/11 01:34:16;;;;;;;31.1;21.2;;;;;;;;;;;;;
2019/11/11 01:36:41;;;;;;;33.2;22.4;;;;;;;;;;;;;
2019/11/11 01:39:07;;;;;;;33.6;22.4;;;;;;;;;;;;;
2019/11/11 01:41:32;;;;;;;34.8;22.1;;;;;;;;;;;;;
2019/11/11 01:43:57;;;;;;;35.2;23.3;;;;;;;;;;;;;
2019/11/11 01:46:22;;;;;;;34.9;23.2;;;;;;;;;;;;;
2019/11/11 01:48:47;;;;;;;34;22.5;;;;;;;;;;;;;
2019/11/11 01:51:12;;;;;;;32.8;22.1;;;;;;;;;;;;;
2019/11/11 01:53:37;;;;;;;34.7;23.3;;;;;;;;;;;;;
2019/11/11 01:56:02;;;;;;;36.3;23.5;;;;;;;;;;;;;
2019/11/11 01:58:28;;;;;;;34.5;22.7;;;;;;;;;;;;;
2019/11/11 02:00:53;;;;;;;35.5;23.6;;;;;;;;;;;;;
2019/11/11 02:03:18;;;;;;;35.3;23;;;;;;;;;;;;;
2019/11/11 02:05:43;;;;;;;35;23;;;;;;;;;;;;;
2019/11/11 02:08:08;;;;;;;35.8;23.7;;;;;;;;;;;;;
2019/11/11 02:10:33;;;;;;;34.7;22.8;;;;;;;;;;;;;
2019/11/11 02:12:58;;;;;;;35.5;22.8;;;;;;;;;;;;;
2019/11/11 02:15:23;;;;;;;34;22.5;;;;;;;;;;;;;
2019/11/11 02:17:49;;;;;;;29.7;20.7;;;;;;;;;;;;;
2019/11/11 02:20:14;;;;;;;31.8;22.1;;;;;;;;;;;;;
2019/11/11 02:22:39;;;;;;;31.6;21.9;;;;;;;;;;;;;
2019/11/11 02:25:04;;;;;;;30.8;21.6;;;;;;;;;;;;;
2019/11/11 02:27:29;;;;;;;32.1;21.1;;;;;;;;;;;;;
2019/11/11 02:29:54;;;;;;;30.7;21.3;;;;;;;;;;;;;
2019/11/11 02:32:19;;;;;;;32.6;22.1;;;;;;;;;;;;;
2019/11/11 02:34:44;;;;;;;33.4;22.1;;;;;;;;;;;;;
2019/11/11 02:37:09;;;;;;;32.8;21.9;;;;;;;;;;;;;
2019/11/11 02:39:34;;;;;;;33.5;21.9;;;;;;;;;;;;;
2019/11/11 02:42:00;;;;;;;31.9;21.1;;;;;;;;;;;;;
2019/11/11 02:44:25;;;;;;;34.2;22.4;;;;;;;;;;;;;
2019/11/11 02:46:50;;;;;;;32.5;22.2;;;;;;;;;;;;;
2019/11/11 02:49:15;;;;;;;33.6;22.3;;;;;;;;;;;;;
2019/11/11 02:51:40;;;;;;;33.3;21.4;;;;;;;;;;;;;
2019/11/11 02:54:05;;;;;;;32.9;21.8;;;;;;;;;;;;;
2019/11/11 02:56:30;;;;;;;31.1;21.7;;;;;;;;;;;;;
2019/11/11 02:58:55;;;;;;;33.2;22;;;;;;;;;;;;;
2019/11/11 03:01:20;;;;;;;34.3;21.4;;;;;;;;;;;;;
2019/11/11 03:03:45;;;;;;;32.1;21.5;;;;;;;;;;;;;
2019/11/11 03:06:10;;;;;;;31.1;21.3;;;;;;;;;;;;;
2019/11/11 03:08:36;;;;;;;32.4;21.9;;;;;;;;;;;;;
2019/11/11 03:11:01;;;;;;;34.8;22.7;;;;;;;;;;;;;
2019/11/11 03:13:38;;;;;;;33.1;21.4;;;;;;;;;;;;;
2019/11/11 03:15:55;;;;;;;33.3;22;;;;;;;;;;;;;
2019/11/11 03:18:16;;;;;;;33.4;21.6;;;;;;;;;;;;;
2019/11/11 03:20:41;;;;;;;34;22.1;;;;;;;;;;;;;
2019/11/11 03:23:06;;;;;;;33.5;21.9;;;;;;;;;;;;;
2019/11/11 03:25:31;;;;;;;32.7;21.3;;;;;;;;;;;;;
2019/11/11 03:27:56;;;;;;;32.7;21.4;;;;;;;;;;;;;
2019/11/11 03:30:21;;;;;;;35.2;22.1;;;;;;;;;;;;;
2019/11/11 03:32:46;;;;;;;32.3;21.4;;;;;;;;;;;;;
2019/11/11 03:35:12;;;;;;;33.8;21.3;;;;;;;;;;;;;
2019/11/11 03:37:37;;;;;;;31.5;20.7;;;;;;;;;;;;;
2019/11/11 03:40:02;;;;;;;34.3;21.7;;;;;;;;;;;;;
2019/11/11 03:42:27;;;;;;;30.2;20.7;;;;;;;;;;;;;
2019/11/11 03:44:52;;;;;;;32.3;20.8;;;;;;;;;;;;;
2019/11/11 03:47:17;;;;;;;30;20.7;;;;;;;;;;;;;
2019/11/11 03:49:42;;;;;;;31.2;19.8;;;;;;;;;;;;;
2019/11/11 03:52:07;;;;;;;30;19.9;;;;;;;;;;;;;
2019/11/11 03:54:32;;;;;;;29.2;19.2;;;;;;;;;;;;;
2019/11/11 03:56:58;;;;;;;30.7;20.3;;;;;;;;;;;;;
2019/11/11 03:59:23;;;;;;;29.3;18.8;;;;;;;;;;;;;
2019/11/11 04:02:27;;;;;;;28.7;19.2;;;;;;;4.15;88.49316;1001.447;;;;
2019/11/11 04:04:52;;;;;;;28.4;18.8;;;;;;;4.01;88.67773;1001.578;;;;
2019/11/11 04:07:17;;;;;;;30;19.5;;;;;;;4.03;88.99707;1001.628;;;;
2019/11/11 04:09:43;;;;;;;27.8;18.4;;;;;;;4.33;88.32813;1001.598;;;;
2019/11/11 04:12:08;;;;;;;26.9;17.7;;;;;;;4.68;86.23242;1001.538;;;;
2019/11/11 04:14:33;;;;;;;26.3;17;;;;;;;4.47;86.25684;1001.525;;;;
2019/11/11 04:16:58;;;;;;;26.6;17.5;;;;;;;4.64;85.96387;1001.477;;;;
2019/11/11 04:19:23;;;;;;;29.1;18.6;;;;;;;4.38;86.8252;1001.439;;;;
2019/11/11 04:21:48;;;;;;;28.2;18.6;;;;;;;4.28;87.7207;1001.363;;;;
2019/11/11 04:24:13;;;;;;;29.4;19.3;;;;;;;4.28;88.06836;1001.234;;;;
2019/11/11 04:26:38;;;;;;;28.5;19.2;;;;;;;4.28;88.05664;1001.162;;;;
2019/11/11 04:29:03;;;;;;;28.1;18.4;;;;;;;4.3;87.99316;1001.105;;;;
2019/11/11 04:31:28;;;;;;;27.6;18.5;;;;;;;4.08;88.61426;1001.072;;;;
2019/11/11 04:33:53;;;;;;;27.6;18.2;;;;;;;4.13;88.83789;1001.005;;;;
2019/11/11 04:36:19;;;;;;;28.9;18.8;;;;;;;4.13;88.7041;1000.988;;;;
2019/11/11 04:38:44;;;;;;;28.7;18.3;;;;;;;4.16;88.78906;1000.975;;;;
2019/11/11 04:41:09;;;;;;;28.2;18.5;;;;;;;4.14;88.88477;1000.967;;;;
2019/11/11 04:43:34;;;;;;;29.9;19;;;;;;;4.08;89.03125;1000.997;;;;
2019/11/11 04:45:59;;;;;;;27.6;17.8;;;;;;;4.2;88.70605;1000.879;;;;
2019/11/11 04:48:24;;;;;;;29.6;18.3;;;;;;;4.13;88.65918;1000.823;;;;
2019/11/11 04:50:49;;;;;;;30;19;;;;;;;4.07;88.84863;1000.884;;;;
2019/11/11 04:53:14;;;;;;;28.5;18.6;;;;;;;4.09;89.10059;1000.818;;;;
2019/11/11 04:55:40;;;;;;;30.4;19.8;;;;;;;3.98;89.54004;1000.784;;;;
2019/11/11 04:58:05;;;;;;;31.2;19.1;;;;;;;4;89.61133;1000.662;;;;
2019/11/11 05:00:30;;;;;;;30.6;19.1;;;;;;;3.94;89.70215;1000.604;;;;
2019/11/11 05:02:55;;;;;;;30.1;19.4;;;;;;;3.83;90.35352;1000.622;;;;
2019/11/11 05:05:20;;;;;;;31.1;19.8;;;;;;;3.86;90.37012;1000.737;;;;
2019/11/11 05:07:45;;;;;;;31.2;19.7;;;;;;;3.89;90.37793;1000.822;;;;
2019/11/11 05:10:10;;;;;;;32;19.7;;;;;;;3.84;90.70508;1000.786;;;;
2019/11/11 05:12:35;;;;;;;32.3;20.5;;;;;;;3.87;90.81348;1000.678;;;;
2019/11/11 05:15:00;;;;;;;31.6;20.3;;;;;;;3.85;90.78711;1000.539;;;;
2019/11/11 05:17:26;;;;;;;30.2;19.4;;;;;;;3.97;90.6416;1000.543;;;;
2019/11/11 05:19:51;;;;;;;32;19.7;;;;;;;3.85;90.50586;1000.61;;;;
2019/11/11 05:22:16;;;;;;;33.4;19.7;;;;;;;3.85;90.99023;1000.663;;;;
2019/11/11 05:24:41;;;;;;;31.1;19.3;;;;;;;3.83;91.2998;1000.603;;;;
2019/11/11 05:27:06;;;;;;;33.2;20.9;;;;;;;3.85;90.90039;1000.6;;;;
2019/11/11 05:29:31;;;;;;;31.2;19;;;;;;;3.96;90.59668;1000.574;;;;
2019/11/11 05:31:56;;;;;;;31.4;19.1;;;;;;;3.9;90.53809;1000.615;;;;
2019/11/11 05:34:21;;;;;;;30.2;19.4;;;;;;;4;90.40332;1000.621;;;;
2019/11/11 05:36:46;;;;;;;31.1;19.7;;;;;;;3.94;90.52441;1000.671;;;;
2019/11/11 05:39:12;;;;;;;33.1;19.9;;;;;;;3.92;90.34961;1000.61;;;;
2019/11/11 05:41:37;;;;;;;31;19;;;;;;;3.85;90.56152;1000.62;;;;
2019/11/11 05:44:02;;;;;;;31.8;19.4;;;;;;;3.78;90.77051;1000.703;;;;
2019/11/11 05:46:27;;;;;;;31.6;19.7;;;;;;;3.7;90.96875;1000.704;;;;
2019/11/11 05:48:52;;;;;;;36;20.5;;;;;;;3.64;91.50977;1000.665;;;;
2019/11/11 05:51:17;;;;;;;35.2;20;;;;;;;3.56;91.79395;1000.683;;;;
2019/11/11 05:53:43;;;;;;;33.6;19.6;;;;;;;3.63;91.77539;1000.602;;;;
2019/11/11 05:56:08;;;;;;;31.2;19.3;;;;;;;3.66;91.56934;1000.566;;;;
2019/11/11 05:58:33;;;;;;;31.4;20;;;;;;;3.61;91.80566;1000.566;;;;
2019/11/11 06:00:58;;;;;;;34.2;20.4;;;;;;;3.59;92.08301;1000.561;;;;
2019/11/11 06:03:23;;;;;;;31.3;19;;;;;;;3.63;91.74023;1000.491;;;;
2019/11/11 06:05:48;;;;;;;30.8;19.2;;;;;;;3.61;91.64648;1000.498;;;;
2019/11/11 06:08:13;;;;;;;33.5;19.1;;;;;;;3.6;92.01758;1000.385;;;;
2019/11/11 06:10:38;;;;;;;32.1;18.7;;;;;;;3.59;91.79102;1000.343;;;;
2019/11/11 06:13:04;;;;;;;30.9;18.6;;;;;;;3.66;91.82715;1000.388;;;;
2019/11/11 06:15:29;;;;;;;30;18;;;;;;;3.72;91.45703;1000.447;;;;
2019/11/11 06:17:55;;;;;;;31;18.3;;;;;;;3.74;91.06641;1000.441;;;;
2019/11/11 06:20:20;;;;;;;32.1;18.2;;;;;;;3.77;90.92773;1000.479;;;;
2019/11/11 06:22:45;;;;;;;30.9;18.1;;;;;;;3.6;91.18262;1000.474;;;;
2019/11/11 06:25:15;;;;;;;32.3;18;;;;;;;3.53;92.02441;1000.409;;;;
2019/11/11 06:27:40;;;;;;;29.7;16.9;;;;;;;3.63;91.5166;1000.369;;;;
2019/11/11 06:30:06;;;;;;;31.1;17.7;;;;;;;3.69;91.34961;1000.455;;;;
2019/11/11 06:32:31;;;;;;;30.8;17.9;;;;;;;3.69;91.2373;1000.478;;;;
2019/11/11 06:34:56;;;;;;;29.8;17.5;;;;;;;3.79;91.23633;1000.446;;;;
2019/11/11 06:37:21;;;;;;;31.1;18.2;;;;;;;3.8;90.83203;1000.396;;;;
2019/11/11 06:39:46;;;;;;;29.6;16.9;;;;;;;4.06;89.87305;1000.388;;;;
2019/11/11 06:42:11;;;;;;;29.8;17.2;;;;;;;3.84;90.19727;1000.4;;;;
2019/11/11 06:44:36;;;;;;;28;17.2;;;;;;;3.75;90.70801;1000.373;;;;
2019/11/11 06:47:01;;;;;;;31.4;18;;;;;;;3.7;90.81152;1000.376;;;;
2019/11/11 06:49:26;;;;;;;31.4;17.8;;;;;;;3.64;90.94434;1000.302;;;;
2019/11/11 06:51:51;;;;;;;29.4;17.4;;;;;;;3.62;91.04199;1000.269;;;;
2019/11/11 06:54:16;;;;;;;29.8;17;;;;;;;3.64;91.13574;1000.175;;;;
2019/11/11 06:56:41;;;;;;;31;17.6;;;;;;;3.58;91.29102;1000.203;;;;
2019/11/11 06:59:07;;;;;;;31.7;17.7;;;;;;;3.46;91.8623;1000.141;;;;
2019/11/11 07:01:32;;;;;;;30.2;17;;;;;;;3.43;92.11426;1000.168;;;;
2019/11/11 07:03:57;;;;;;;31.4;17.8;;;;;;;3.44;92.17383;1000.094;;;;
2019/11/11 07:06:22;;;;;;;31.1;17.9;;;;;;;3.51;92.09961;1000.004;;;;
2019/11/11 07:08:47;;;;;;;29.5;17.6;;;;;;;3.59;91.3623;999.9961;;;;
2019/11/11 07:11:12;;;;;;;29.1;17;;;;;;;3.58;91.55176;1000.023;;;;
2019/11/11 07:13:37;;;;;;;29.5;16.9;;;;;;;3.66;91.21875;999.998;;;;
2019/11/11 07:16:02;;;;;;;29.5;17;;;;;;;3.73;91.52637;999.9439;;;;
2019/11/11 07:18:27;;;;;;;33.2;17.3;;;;;;;3.75;90.61816;999.9589;;;;
2019/11/11 07:20:53;;;;;;;27.8;16.8;;;;;;;3.85;90.56152;999.9189;;;;
2019/11/11 07:23:18;;;;;;;29.8;16.2;;;;;;;3.98;89.96875;999.9462;;;;
2019/11/11 07:25:43;;;;;;;30;16.1;;;;;;;4.02;89.56152;999.9126;;;;
2019/11/11 07:28:08;;;;;;;30.2;16.6;;;;;;;4.02;89.6377;999.8408;;;;
2019/11/11 07:30:33;;;;;;;29;16.2;;;;;;;4.04;89.10254;999.7059;;;;
2019/11/11 07:32:58;;;;;;;28;16;;;;;;;3.99;89.39551;999.7986;;;;
2019/11/11 07:35:23;;;;;;;29;16.6;;;;;;;4.03;89.31445;999.7759;;;;
2019/11/11 07:37:48;;;;;;;32.9;16.7;;;;;;;4.19;88.73828;999.6964;;;;
2019/11/11 07:40:14;;;;;;;29.7;16.4;;;;;;;4.14;88.88672;999.6682;;;;
2019/11/11 07:42:39;;;;;;;28.3;15.7;;;;;;;4.25;88.54785;999.6057;;;;
2019/11/11 07:45:04;;;;;;;27;15.5;;;;;;;4.25;88.11914;999.5933;;;;
2019/11/11 07:47:29;;;;;;;30.8;16.7;;;;;;;4.23;88.44434;999.6909;;;;
2019/11/11 07:49:54;;;;;;;28.9;15.6;;;;;;;4.29;88.19434;999.7559;;;;
2019/11/11 07:52:19;;;;;;;30.3;15.5;;;;;;;4.38;88.04395;999.7486;;;;
2019/11/11 07:54:51;;;;;;;29.6;16;;;;;;;4.38;87.10938;999.8354;;;;
2019/11/11 07:57:14;;;;;;;28.6;15.6;;;;;;;4.27;87.75098;999.8336;;;;
2019/11/11 07:59:39;;;;;;;29.5;16.6;;;;;;;4.32;87.6377;999.7827;;;;
2019/11/11 08:02:04;;;;;;;28.7;15.9;;;;;;;4.26;87.42188;999.7182;;;;
2019/11/11 08:04:29;;;;;;;30.6;16.2;;;;;;;4.24;87.65527;999.6741;;;;
2019/11/11 08:06:54;;;;;;;28.4;16.4;;;;;;;4.28;87.76367;999.5729;;;;
2019/11/11 08:09:19;;;;;;;31.2;17.8;;;;;;;4.26;87.83887;999.5701;;;;
2019/11/11 08:11:44;;;;;;;30.7;17.2;;;;;;;4.17;88.21484;999.5332;;;;
2019/11/11 08:14:11;;;;;;;30.1;17.1;;;;;;;4.38;87.48145;999.5139;;;;
2019/11/11 08:16:35;;;;;;;31;16.7;;;;;;;4.38;87.43652;999.4828;;;;
2019/11/11 08:19:00;;;;;;;30.1;17;;;;;;;4.51;87.14551;999.4978;;;;
2019/11/11 08:21:25;;;;;;;30.9;17.1;;;;;;;4.62;86.8291;999.5377;;;;
2019/11/11 08:23:50;;;;;;;33.2;17.9;;;;;;;4.43;87.36621;999.525;;;;
2019/11/11 08:26:15;;;;;;;33.6;18.6;;;;;;;4.65;86.13477;999.5059;;;;
2019/11/11 08:28:40;;;;;;;33.2;18.9;;;;;;;4.71;85.875;999.521;;;;
2019/11/11 08:31:05;;;;;;;34.4;18.4;;;;;;;4.75;85.43359;999.4863;;;;
2019/11/11 08:33:30;;;;;;;33.5;18.3;;;;;;;4.72;85.64258;999.481;;;;
2019/11/11 08:35:55;;;;;;;31.1;17.9;;;;;;;4.79;85.58789;999.4127;;;;
2019/11/11 08:38:21;;;;;;;29.8;18.1;;;;;;;4.79;85.52148;999.3267;;;;
2019/11/11 08:40:46;;;;;;;36.3;20.2;;;;;;;4.89;85.0293;999.2826;;;;
2019/11/11 08:43:11;;;;;;;31.2;19.8;;;;;;;4.92;84.92383;999.1945;;;;
2019/11/11 08:45:36;;;;;;;31.2;19.3;;;;;;;;;;;;;
2019/11/11 08:48:01;;;;;;;32;20.3;;;;;;;;;;;;;
2019/11/11 08:50:26;;;;;;;30.3;20;;;;;;;;;;;;;
2019/11/11 08:52:51;;;;;;;27.9;19.3;;;;;;;;;;;;;
2019/11/11 08:55:18;;;;;;;28.8;19.9;;;;;;;;;;;;;
2019/11/11 08:57:42;;;;;;;30.2;20.1;;;;;;;;;;;;;
2019/11/11 09:00:07;;;;;;;28.6;20.1;;;;;;;;;;;;;
2019/11/11 09:02:32;;;;;;;27.7;19.6;;;;;;;;;;;;;
2019/11/11 09:04:58;;;;;;;27.3;19.3;;;;;;;;;;;;;
2019/11/11 09:07:22;;;;;;;29;19.5;;;;;;;;;;;;;
2019/11/11 09:09:47;;;;;;;27.1;19.5;;;;;;;;;;;;;
2019/11/11 09:12:13;;;;;;;25.3;18.5;;;;;;;;;;;;;
2019/11/11 09:14:38;;;;;;;26.6;19.1;;;;;;;;;;;;;
2019/11/11 09:17:03;;;;;;;30.2;20.6;;;;;;;;;;;;;
2019/11/11 09:19:29;;;;;;;29.2;20.1;;;;;;;;;;;;;
2019/11/11 09:21:54;;;;;;;31.1;20.1;;;;;;;;;;;;;
2019/11/11 09:24:18;;;;;;;31.4;20.3;;;;;;;;;;;;;
2019/11/11 09:26:46;;;;;;;31.8;20;;;;;;;;;;;;;
2019/11/11 09:29:10;;;;;;;31.3;20.5;;;;;;;;;;;;;
2019/11/11 09:31:33;;;;;;;30.3;19.6;;;;;;;;;;;;;
2019/11/11 09:33:58;;;;;;;25.7;17.7;;;;;;;;;;;;;
2019/11/11 09:36:23;;;;;;;26.5;17.5;;;;;;;;;;;;;
2019/11/11 09:38:49;;;;;;;29.1;18.5;;;;;;;;;;;;;
2019/11/11 09:41:14;;;;;;;26;17.3;;;;;;;;;;;;;
2019/11/11 09:43:39;;;;;;;26.5;17.4;;;;;;;;;;;;;
2019/11/11 09:46:04;;;;;;;29.2;18.8;;;;;;;;;;;;;
2019/11/11 09:48:29;;;;;;;27.7;18;;;;;;;;;;;;;
2019/11/11 09:50:54;;;;;;;29.7;18.6;;;;;;;;;;;;;
2019/11/11 09:53:19;;;;;;;29;17.9;;;;;;;;;;;;;
2019/11/11 09:55:44;;;;;;;25.7;17.1;;;;;;;;;;;;;
2019/11/11 09:58:09;;;;;;;26.2;17.2;;;;;;;;;;;;;
2019/11/11 10:00:34;;;;;;;26.4;17;;;;;;;;;;;;;
2019/11/11 10:03:00;;;;;;;37.4;25.4;;;;;;;;;;;;;
2019/11/11 10:05:26;;;;;;;24.1;16.9;;;;;;;;;;;;;
2019/11/11 10:07:50;;;;;;;23.6;16.4;;;;;;;;;;;;;
2019/11/11 10:10:15;;;;;;;23.4;15.8;;;;;;;;;;;;;
2019/11/11 10:12:40;;;;;;;22.7;16;;;;;;;;;;;;;
2019/11/11 10:15:05;;;;;;;25.8;17.8;;;;;;;;;;;;;
2019/11/11 10:17:30;;;;;;;21.8;15.3;;;;;;;;;;;;;
2019/11/11 10:19:55;;;;;;;20.1;14.4;;;;;;;;;;;;;
2019/11/11 10:22:21;;;;;;;19.8;14.4;;;;;;;;;;;;;
2019/11/11 10:24:46;;;;;;;22;14.3;;;;;;;;;;;;;
2019/11/11 10:27:11;;;;;;;20.1;13.8;;;;;;;;;;;;;
2019/11/11 10:29:39;;;;;;;21.1;14.5;;;;;;;;;;;;;
2019/11/11 10:32:05;;;;;;;22.4;14.7;;;;;;;;;;;;;
2019/11/11 10:34:30;;;;;;;18.5;13.7;;;;;;;;;;;;;
2019/11/11 10:36:55;;;;;;;20.5;14.1;;;;;;;;;;;;;
2019/11/11 10:39:20;;;;;;;20;14.6;;;;;;;;;;;;;
2019/11/11 10:41:45;;;;;;;18.7;13.1;;;;;;;;;;;;;
2019/11/11 10:44:11;;;;;;;20.8;14.6;;;;;;;;;;;;;
2019/11/11 10:46:36;;;;;;;19.7;14.3;;;;;;;;;;;;;
2019/11/11 10:49:01;;;;;;;17.5;13.1;;;;;;;;;;;;;
2019/11/11 10:51:26;;;;;;;18.5;12.5;;;;;;;;;;;;;
2019/11/11 10:53:52;;;;;;;15.6;11.9;;;;;;;;;;;;;
2019/11/11 10:56:16;;;;;;;15.5;11.6;;;;;;;;;;;;;
2019/11/11 10:58:42;;;;;;;18.2;12.5;;;;;;;;;;;;;
2019/11/11 11:01:07;;;;;;;18.5;13.3;;;;;;;;;;;;;
2019/11/11 11:03:32;;;;;;;20.9;13.7;;;;;;;;;;;;;
2019/11/11 11:05:57;;;;;;;21.9;13.7;;;;;;;;;;;;;
2019/11/11 11:08:22;;;;;;;17.7;13.1;;;;;;;;;;;;;
2019/11/11 11:10:47;;;;;;;19.2;13.2;;;;;;;;;;;;;
2019/11/11 11:13:14;;;;;;;16.8;12.4;;;;;;;;;;;;;
2019/11/11 11:15:39;;;;;;;19.2;13.2;;;;;;;;;;;;;
2019/11/11 11:18:03;;;;;;;19.7;13.1;;;;;;;;;;;;;
2019/11/11 11:20:32;;;;;;;16.8;12.7;;;;;;;;;;;;;
2019/11/11 11:22:52;;;;;;;18.1;13;;;;;;;;;;;;;
2019/11/11 11:25:19;;;;;;;18.4;13.1;;;;;;;;;;;;;
2019/11/11 11:27:43;;;;;;;18.8;13.7;;;;;;;;;;;;;
2019/11/11 11:30:08;;;;;;;20.4;14.8;;;;;;;;;;;;;
2019/11/11 11:32:33;;;;;;;21.4;14.2;;;;;;;;;;;;;
2019/11/11 11:34:58;;;;;;;20.3;14.1;;;;;;;;;;;;;
2019/11/11 11:37:25;;;;;;;20.1;14.1;;;;;;;;;;;;;
2019/11/11 11:39:49;;;;;;;20;14.2;;;;;;;;;;;;;
2019/11/11 11:42:15;;;;;;;18.9;13.6;;;;;;;;;;;;;
2019/11/11 11:44:40;;;;;;;28;17.3;;;;;;;;;;;;;
2019/11/11 11:47:04;;;;;;;21.6;14.9;;;;;;;;;;;;;
2019/11/11 11:49:29;;;;;;;18.1;13.1;;;;;;;;;;;;;
2019/11/11 11:51:54;;;;;;;17.3;12.4;;;;;;;;;;;;;
2019/11/11 11:54:20;;;;;;;18;13.2;;;;;;;;;;;;;
2019/11/11 11:56:44;;;;;;;19;12.9;;;;;;;;;;;;;
2019/11/11 11:59:09;;;;;;;19.1;13.4;;;;;;;;;;;;;
2019/11/11 12:01:35;;;;;;;20.8;14.6;;;;;;;;;;;;;
2019/11/11 12:04:00;;;;;;;24;16.6;;;;;;;;;;;;;
2019/11/11 12:06:25;;;;;;;22.6;15.5;;;;;;;;;;;;;
2019/11/11 12:08:50;;;;;;;21.3;14.6;;;;;;;;;;;;;
2019/11/11 12:11:15;;;;;;;21.3;14.9;;;;;;;;;;;;;
2019/11/11 12:13:40;;;;;;;22.4;15.4;;;;;;;;;;;;;
2019/11/11 12:16:05;;;;;;;22.7;15.3;;;;;;;;;;;;;
2019/11/11 12:18:31;;;;;;;24.4;15.4;;;;;;;;;;;;;
2019/11/11 12:20:56;;;;;;;20.9;14.4;;;;;;;;;;;;;
2019/11/11 12:23:21;;;;;;;22.5;16;;;;;;;;;;;;;
2019/11/11 12:25:46;;;;;;;22.2;15.3;;;;;;;;;;;;;
2019/11/11 12:28:11;;;;;;;23.7;15.7;;;;;;;;;;;;;
2019/11/11 12:30:37;;;;;;;22.2;15.1;;;;;;;;;;;;;
2019/11/11 12:33:02;;;;;;;20.4;14.5;;;;;;;;;;;;;
2019/11/11 12:35:27;;;;;;;21.4;14.3;;;;;;;;;;;;;
2019/11/11 12:37:52;;;;;;;21;14.4;;;;;;;;;;;;;
2019/11/11 12:40:16;;;;;;;22.8;14.4;;;;;;;;;;;;;
2019/11/11 12:42:43;;;;;;;19.9;13.2;;;;;;;;;;;;;
2019/11/11 12:45:07;;;;;;;19.4;12.7;;;;;;;;;;;;;
2019/11/11 12:47:32;;;;;;;19.5;13.5;;;;;;;;;;;;;
2019/11/11 12:49:57;;;;;;;20;12.6;;;;;;;;;;;;;
2019/11/11 12:52:22;;;;;;;18.3;12.7;;;;;;;;;;;;;
2019/11/11 12:54:48;;;;;;;18.4;13.2;;;;;;;;;;;;;
2019/11/11 12:57:18;;;;;;;19.9;13.1;;;;;;;;;;;;;
2019/11/11 12:59:47;;;;;;;19.1;13.3;;;;;;;;;;;;;
2019/11/11 13:02:03;;;;;;;21.5;13.9;;;;;;;;;;;;;
2019/11/11 13:04:28;;;;;;;22.6;14.2;;;;;;;;;;;;;
2019/11/11 13:06:54;;;;;;;21.4;14.2;;;;;;;;;;;;;
2019/11/11 13:09:18;;;;;;;25.9;14.3;;;;;;;;;;;;;
2019/11/11 13:11:43;;;;;;;24.4;14.1;;;;;;;;;;;;;
2019/11/11 13:14:09;;;;;;;19.2;13.4;;;;;;;;;;;;;
2019/11/11 13:16:34;;;;;;;21.4;13.2;;;;;;;;;;;;;
2019/11/11 13:18:59;;;;;;;20.5;14;;;;;;;;;;;;;
2019/11/11 13:21:24;;;;;;;19.2;13;;;;;;;;;;;;;
2019/11/11 13:23:49;;;;;;;20;13.6;;;;;;;;;;;;;
2019/11/11 13:26:14;;;;;;;19.8;13.6;;;;;;;;;;;;;
2019/11/11 13:28:39;;;;;;;20.4;14;;;;;;;;;;;;;
2019/11/11 13:31:04;;;;;;;19.7;13.8;;;;;;;;;;;;;
2019/11/11 13:33:29;;;;;;;20.8;13.5;;;;;;;;;;;;;
2019/11/11 13:35:55;;;;;;;19.9;14.1;;;;;;;;;;;;;
2019/11/11 13:38:20;;;;;;;20.3;13.8;;;;;;;;;;;;;
2019/11/11 13:40:45;;;;;;;17.2;12.5;;;;;;;;;;;;;
2019/11/11 13:43:10;;;;;;;19.8;13.7;;;;;;;;;;;;;
2019/11/11 13:45:35;;;;;;;20;13.4;;;;;;;;;;;;;
2019/11/11 13:48:00;;;;;;;18.2;12.8;;;;;;;;;;;;;
2019/11/11 13:50:25;;;;;;;17.6;12;;;;;;;;;;;;;
2019/11/11 13:52:50;;;;;;;16.6;12.2;;;;;;;;;;;;;
2019/11/11 13:55:16;;;;;;;17.6;12.9;;;;;;;;;;;;;
2019/11/11 13:57:41;;;;;;;18.2;12.4;;;;;;;;;;;;;
2019/11/11 14:00:06;;;;;;;18.6;12.4;;;;;;;;;;;;;
2019/11/11 14:02:31;;;;;;;17;12;;;;;;;;;;;;;
2019/11/11 14:04:56;;;;;;;17.2;11.8;;;;;;;;;;;;;
2019/11/11 14:07:21;;;;;;;17.2;11.9;;;;;;;;;;;;;
2019/11/11 14:09:46;;;;;;;17.3;12.4;;;;;;;;;;;;;
2019/11/11 14:12:11;;;;;;;18.6;12.2;;;;;;;;;;;;;
2019/11/11 14:14:36;;;;;;;17.8;12.4;;;;;;;;;;;;;
2019/11/11 14:17:01;;;;;;;17.7;11.8;;;;;;;;;;;;;
2019/11/11 14:19:27;;;;;;;18;13;;;;;;;;;;;;;
2019/11/11 14:21:52;;;;;;;18.3;13.2;;;;;;;;;;;;;
2019/11/11 14:24:17;;;;;;;17.9;12.4;;;;;;;;;;;;;
2019/11/11 14:26:42;;;;;;;19.1;12.8;;;;;;;;;;;;;
2019/11/11 14:29:08;;;;;;;20;13.2;;;;;;;;;;;;;
2019/11/11 14:31:32;;;;;;;24.3;16.4;;;;;;;;;;;;;
2019/11/11 14:33:58;;;;;;;17.3;11.5;;;;;;;;;;;;;
2019/11/11 14:36:23;;;;;;;17.2;12.3;;;;;;;;;;;;;
2019/11/11 14:38:48;;;;;;;17.5;12.4;;;;;;;;;;;;;
2019/11/11 14:41:13;;;;;;;18.7;12.7;;;;;;;;;;;;;
2019/11/11 14:43:38;;;;;;;19.2;12.7;;;;;;;;;;;;;
2019/11/11 14:46:03;;;;;;;19.5;13.2;;;;;;;;;;;;;
2019/11/11 14:48:28;;;;;;;20.1;13.3;;;;;;;;;;;;;
2019/11/11 14:50:53;;;;;;;20.2;13.7;;;;;;;;;;;;;
2019/11/11 14:53:18;;;;;;;19.9;13.5;;;;;;;;;;;;;
2019/11/11 14:55:43;;;;;;;22.8;14.2;;;;;;;;;;;;;
2019/11/11 14:58:08;;;;;;;22.5;14.8;;;;;;;;;;;;;
2019/11/11 15:00:34;;;;;;;20.5;14.2;;;;;;;;;;;;;
2019/11/11 15:02:59;;;;;;;21.4;14;;;;;;;;;;;;;
2019/11/11 15:05:24;;;;;;;20.7;13.5;;;;;;;;;;;;;
2019/11/11 15:07:49;;;;;;;19.5;14;;;;;;;;;;;;;
2019/11/11 15:10:14;;;;;;;22.5;14.7;;;;;;;;;;;;;
2019/11/11 15:12:39;;;;;;;20.8;14.5;;;;;;;;;;;;;
2019/11/11 15:15:19;;;;;;;21.7;14.3;;;;;;;;;;;;;
2019/11/11 15:19:55;;;;;;;21.9;14.7;;;;;;;;;;;;;
2019/11/11 15:22:20;;;;;;;20.8;13.8;;;;;;;;;;;;;
2019/11/11 15:24:45;;;;;;;19.2;13.5;;;;;;;;;;;;;
2019/11/11 15:27:11;;;;;;;18.4;13;;;;;;;;;;;;;
2019/11/11 15:29:36;;;;;;;20.3;13.6;;;;;;;;;;;;;
2019/11/11 15:32:01;;;;;;;18;12.9;;;;;;;;;;;;;
2019/11/11 15:34:26;;;;;;;20.4;13.5;;;;;;;;;;;;;
2019/11/11 15:36:51;;;;;;;19.6;13.6;;;;;;;;;;;;;
2019/11/11 15:39:20;;;;;;;22;14.7;;;;;;;;;;;;;
2019/11/11 15:41:42;;;;;;;23.4;14.8;;;;;;;;;;;;;
2019/11/11 15:44:08;;;;;;;21.5;14.5;;;;;;;;;;;;;
2019/11/11 15:46:32;;;;;;;20.9;14;;;;;;;;;;;;;
2019/11/11 15:48:57;;;;;;;18.9;13.8;;;;;;;;;;;;;
2019/11/11 15:51:22;;;;;;;20.1;13.7;;;;;;;;;;;;;
2019/11/11 15:53:48;;;;;;;19.4;13.9;;;;;;;;;;;;;
2019/11/11 15:56:13;;;;;;;19.9;13.5;;;;;;;;;;;;;
2019/11/11 15:58:38;;;;;;;21.6;14.3;;;;;;;;;;;;;
2019/11/11 16:01:03;;;;;;;21.2;13.6;;;;;;;;;;;;;
2019/11/11 16:03:28;;;;;;;20.2;13.8;;;;;;;;;;;;;
2019/11/11 16:05:53;;;;;;;18.9;13.5;;;;;;;;;;;;;
2019/11/11 16:08:18;;;;;;;20.8;14.4;;;;;;;;;;;;;
2019/11/11 16:10:43;;;;;;;19.3;14;;;;;;;;;;;;;
2019/11/11 16:13:09;;;;;;;20.4;14.8;;;;;;;;;;;;;
2019/11/11 16:15:34;;;;;;;18.5;13.4;;;;;;;;;;;;;
2019/11/11 16:17:59;;;;;;;19;13.7;;;;;;;;;;;;;
2019/11/11 16:20:24;;;;;;;19.5;13.9;;;;;;;;;;;;;
2019/11/11 16:22:49;;;;;;;21.3;13.9;;;;;;;;;;;;;
2019/11/11 16:25:14;;;;;;;18.4;12.7;;;;;;;;;;;;;
2019/11/11 16:27:39;;;;;;;19.9;13.5;;;;;;;;;;;;;
2019/11/11 16:30:05;;;;;;;20;12.9;;;;;;;;;;;;;
2019/11/11 16:32:30;;;;;;;20.3;13.3;;;;;;;;;;;;;
2019/11/11 16:34:55;;;;;;;18.2;12.9;;;;;;;;;;;;;
2019/11/11 16:37:20;;;;;;;20.8;13.9;;;;;;;;;;;;;
2019/11/11 16:39:45;;;;;;;20.4;13;;;;;;;;;;;;;
2019/11/11 16:42:10;;;;;;;18.7;12.5;;;;;;;;;;;;;
2019/11/11 16:44:37;;;;;;;16.3;11.7;;;;;;;;;;;;;
2019/11/11 16:47:00;;;;;;;16.7;11.3;;;;;;;;;;;;;
2019/11/11 16:49:25;;;;;;;17.1;11.3;;;;;;;;;;;;;
2019/11/11 16:51:50;;;;;;;17.1;11.6;;;;;;;;;;;;;
2019/11/11 16:54:16;;;;;;;15.7;11.6;;;;;;;;;;;;;
2019/11/11 16:56:41;;;;;;;15.3;11.1;;;;;;;;;;;;;
2019/11/11 16:59:06;;;;;;;15.5;11.1;;;;;;;;;;;;;
2019/11/11 17:01:31;;;;;;;14.9;11.4;;;;;;;;;;;;;
2019/11/11 17:03:56;;;;;;;15.7;10.9;;;;;;;;;;;;;
2019/11/11 17:06:21;;;;;;;15.7;11.5;;;;;;;;;;;;;
2019/11/11 17:08:46;;;;;;;16.4;11.5;;;;;;;;;;;;;
2019/11/11 17:11:12;;;;;;;16.1;11.2;;;;;;;;;;;;;
2019/11/11 17:13:37;;;;;;;15.4;11;;;;;;;;;;;;;
2019/11/11 17:16:02;;;;;;;18.6;11.5;;;;;;;;;;;;;
2019/11/11 17:18:27;;;;;;;18.1;11.6;;;;;;;;;;;;;
2019/11/11 17:20:52;;;;;;;17.1;11.7;;;;;;;;;;;;;
2019/11/11 17:23:17;;;;;;;18.7;12.8;;;;;;;;;;;;;
2019/11/11 17:25:43;;;;;;;18.2;12.8;;;;;;;;;;;;;
2019/11/11 17:28:08;;;;;;;17.4;12.6;;;;;;;;;;;;;
2019/11/11 17:30:33;;;;;;;17.5;12.3;;;;;;;;;;;;;
2019/11/11 17:32:58;;;;;;;17.7;11.7;;;;;;;;;;;;;
2019/11/11 17:35:23;;;;;;;17.7;12.2;;;;;;;;;;;;;
2019/11/11 17:37:48;;;;;;;15.8;11.5;;;;;;;;;;;;;
2019/11/11 17:40:13;;;;;;;15.9;11.9;;;;;;;;;;;;;
2019/11/11 17:42:38;;;;;;;17;12.1;;;;;;;;;;;;;
2019/11/11 17:45:03;;;;;;;17.1;12.4;;;;;;;;;;;;;
2019/11/11 17:47:28;;;;;;;17.2;12.4;;;;;;;;;;;;;
2019/11/11 17:49:54;;;;;;;16.5;12.3;;;;;;;;;;;;;
2019/11/11 17:52:19;;;;;;;16.1;12;;;;;;;;;;;;;